Linhai, China
Current Conditions -  °F | °C
As of 2:00 AM on Wednesday 22 Oct 2014 (Local Time) from ZSNB Reporting Station
Broken Clouds Broken Clouds  
Wind Chill: 66°   Ceiling: 2000
Heat Index: 66°   Visibility: 6mi
Dew Point: 61°   Wind: 9mph
Humidity: 83%   Direction: 320°NW
Pressure: 30.09"   Gusts: NA
Location:  28.84°N, 121.11°E
Report Text: ZSNB 211800Z 32004MPS 9999 BKN020 19/16 Q1019 NOSIG
Loading
Personal Weather Stations






























Interactive Weather Map
Tropical Storm Tracking
New forecast layout! Learn more

10-Day Weather Forecast

Advertisements
Track Severe Weather on mobile